Time;durP1;ratioP1;P1;durP2;ratioP2;P2;SDS_P1;SDS_P2;PMS_P1;PMS_P2;Temp;Humidity;BMP_temperature;BMP_pressure;BME280_temperature;BME280_humidity;BME280_pressure;Samples;Min_cycle;Max_cycle;Signal;HPM_P1;HPM_P2
2024/01/21 00:00:51;;;;;;;3.05;1.73;;;;;;;-2.90;78.31;95730.44;5131543;27;20473;-68
2024/01/21 00:03:16;;;;;;;2.45;1.60;;;;;;;-3.07;78.46;95707.81;5125110;27;20058;-69
2024/01/21 00:05:42;;;;;;;2.20;1.48;;;;;;;-2.99;79.30;95731.44;5101443;27;20027;-69
2024/01/21 00:08:07;;;;;;;2.88;1.48;;;;;;;-2.96;79.24;95731.38;5116746;27;20028;-68
2024/01/21 00:10:32;;;;;;;2.85;1.67;;;;;;;-2.81;79.14;95732.84;5129841;27;20034;-68
2024/01/21 00:12:58;;;;;;;2.38;1.58;;;;;;;-2.68;78.76;95736.03;5122275;27;20028;-68
2024/01/21 00:15:23;;;;;;;6.65;3.03;;;;;;;-2.75;78.62;95725.94;5131436;27;20477;-68
2024/01/21 00:17:49;;;;;;;7.13;2.45;;;;;;;-2.83;78.90;95732.88;5112495;27;20027;-68
2024/01/21 00:20:14;;;;;;;5.03;2.40;;;;;;;-2.96;79.12;95739.84;5110704;27;20027;-69
2024/01/21 00:22:40;;;;;;;4.78;2.13;;;;;;;-2.65;77.21;95741.06;5094578;28;20036;-68
2024/01/21 00:25:09;;;;;;;2.10;1.50;;;;;;;-2.55;76.42;95745.13;5112564;27;20108;-69
2024/01/21 00:27:34;;;;;;;4.75;2.17;;;;;;;-2.56;77.08;95746.84;5112515;27;20432;-68
2024/01/21 00:30:00;;;;;;;3.42;1.90;;;;;;;-2.58;76.82;95745.19;5128238;27;20019;-68
2024/01/21 00:32:25;;;;;;;3.22;1.83;;;;;;;-2.50;77.04;95751.00;5114155;27;20027;-68
2024/01/21 00:34:51;;;;;;;4.35;1.80;;;;;;;-2.36;76.64;95749.03;5132653;27;20030;-69
2024/01/21 00:37:16;;;;;;;2.60;1.60;;;;;;;-2.34;76.14;95743.91;5123738;27;20027;-68
2024/01/21 00:39:41;;;;;;;3.83;2.00;;;;;;;-2.33;76.09;95748.97;5094131;28;20104;-68
2024/01/21 00:42:07;;;;;;;2.28;1.60;;;;;;;-2.29;76.48;95750.59;5109663;27;20449;-68
2024/01/21 00:44:32;;;;;;;2.35;1.33;;;;;;;-2.23;76.31;95756.44;5132995;27;20031;-68
2024/01/21 00:46:58;;;;;;;3.75;1.80;;;;;;;-2.28;76.13;95751.47;5130977;27;20027;-69
2024/01/21 00:49:23;;;;;;;2.20;1.27;;;;;;;-2.25;76.41;95751.41;5111187;28;20035;-69
2024/01/21 00:51:48;;;;;;;4.78;1.60;;;;;;;-2.31;76.22;95736.25;5129520;27;20020;-69
2024/01/21 00:54:14;;;;;;;2.97;1.50;;;;;;;-2.63;76.67;95721.53;5112166;27;20405;-69
2024/01/21 00:56:39;;;;;;;4.25;2.35;;;;;;;-2.47;76.53;95759.41;5130891;27;20500;-69
2024/01/21 00:59:05;;;;;;;3.10;1.83;;;;;;;-2.48;77.03;95756.88;5130239;27;20023;-68
2024/01/21 01:01:30;;;;;;;8.40;3.58;;;;;;;-2.53;76.72;95749.34;5108747;27;20080;-69
2024/01/21 01:03:55;;;;;;;6.03;2.63;;;;;;;-2.62;77.24;95753.72;5120428;27;20428;-69
2024/01/21 01:06:21;;;;;;;3.15;1.92;;;;;;;-2.99;77.60;95724.63;5110883;28;20031;-68
2024/01/21 01:08:47;;;;;;;3.15;2.20;;;;;;;-2.74;77.89;95758.16;5111710;27;20038;-68
2024/01/21 01:11:12;;;;;;;2.92;1.70;;;;;;;-2.67;77.88;95758.03;5130543;27;20027;-68
2024/01/21 01:13:37;;;;;;;3.90;1.88;;;;;;;-2.49;77.22;95757.75;5109827;28;20038;-69
2024/01/21 01:16:03;;;;;;;4.28;2.08;;;;;;;-2.49;76.12;95760.28;5126598;27;20061;-68
2024/01/21 01:18:28;;;;;;;15.40;6.72;;;;;;;-2.79;76.36;95747.19;5130535;27;20035;-68
2024/01/21 01:20:54;;;;;;;16.98;8.60;;;;;;;-2.89;76.98;95757.56;5130840;27;20035;-69
2024/01/21 01:23:19;;;;;;;12.70;6.03;;;;;;;-3.01;77.04;95751.81;5127343;27;20044;-69
2024/01/21 01:25:45;;;;;;;7.65;4.55;;;;;;;-2.90;77.10;95761.78;5129253;27;20039;-68
2024/01/21 01:28:10;;;;;;;3.83;2.40;;;;;;;-2.83;77.35;95763.38;5121879;27;20024;-68
2024/01/21 01:30:36;;;;;;;3.42;2.03;;;;;;;-2.68;77.10;95769.09;5123038;27;20038;-68
2024/01/21 01:33:02;;;;;;;3.10;1.67;;;;;;;-2.92;77.41;95764.38;5132107;27;20027;-68
2024/01/21 01:35:27;;;;;;;3.40;2.00;;;;;;;-2.71;76.93;95764.88;5111396;27;20027;-69
2024/01/21 01:37:53;;;;;;;5.35;2.00;;;;;;;-2.65;77.18;95766.50;5113387;27;20415;-68
2024/01/21 01:40:20;;;;;;;5.43;2.15;;;;;;;-2.58;76.94;95768.09;5129067;27;20541;-68
2024/01/21 01:42:54;;;;;;;5.50;2.40;;;;;;;-2.62;77.02;95762.22;5130133;27;20039;-68
2024/01/21 01:45:19;;;;;;;4.28;2.20;;;;;;;-2.65;77.41;95762.25;5124421;27;20034;-68
2024/01/21 01:47:45;;;;;;;3.38;1.90;;;;;;;-2.74;77.36;95763.22;5119115;27;20031;-68
2024/01/21 01:50:10;;;;;;;2.58;2.08;;;;;;;-2.70;77.58;95764.88;5111422;27;20026;-68
2024/01/21 01:52:35;;;;;;;4.18;2.10;;;;;;;-2.56;77.58;95766.38;5113929;28;20043;-68
2024/01/21 01:55:01;;;;;;;2.97;1.90;;;;;;;-2.52;77.05;95770.53;5094059;28;20027;-68
2024/01/21 01:57:26;;;;;;;3.50;1.67;;;;;;;-2.56;76.71;95762.13;5100461;28;20026;-68
2024/01/21 01:59:52;;;;;;;2.65;1.70;;;;;;;-2.56;77.10;95757.03;5101280;28;20028;-68
2024/01/21 02:02:17;;;;;;;2.65;1.55;;;;;;;-2.53;76.00;95763.75;5109811;28;20030;-68
2024/01/21 02:04:42;;;;;;;2.70;1.60;;;;;;;-2.68;75.92;95775.00;5112231;28;20048;-68
2024/01/21 02:07:08;;;;;;;2.25;1.42;;;;;;;-2.70;75.64;95749.63;5109364;28;20421;-68
2024/01/21 02:09:33;;;;;;;2.65;1.48;;;;;;;-2.61;75.35;95763.88;5092283;28;20043;-68
2024/01/21 02:11:59;;;;;;;2.53;1.67;;;;;;;-2.72;75.59;95761.50;5109877;28;20028;-70
2024/01/21 02:14:24;;;;;;;2.47;1.58;;;;;;;-2.65;75.41;95766.50;5111489;28;20036;-68
2024/01/21 02:16:49;;;;;;;2.47;1.52;;;;;;;-2.67;75.90;95764.00;5117653;28;20049;-68
2024/01/21 02:19:30;;;;;;;2.50;1.40;;;;;;;-2.72;76.18;95765.75;5128529;27;20035;-68
2024/01/21 02:21:55;;;;;;;2.63;1.50;;;;;;;-2.71;76.22;95763.19;5112496;27;20134;-68
2024/01/21 02:24:20;;;;;;;2.20;1.40;;;;;;;-2.94;76.75;95739.81;5109888;28;20473;-68
2024/01/21 02:26:48;;;;;;;2.47;1.60;;;;;;;-2.90;76.63;95761.78;5114743;28;20023;-68
2024/01/21 02:29:13;;;;;;;2.42;1.50;;;;;;;-2.94;77.44;95766.09;5131902;27;20059;-68
2024/01/21 02:31:39;;;;;;;2.30;1.52;;;;;;;-3.04;77.88;95768.78;5131440;27;20031;-68
2024/01/21 02:34:04;;;;;;;2.33;1.40;;;;;;;-3.11;78.30;95777.38;5105818;28;20047;-68
2024/01/21 02:36:29;;;;;;;2.92;1.70;;;;;;;-3.21;78.42;95772.41;5126251;28;20031;-68
2024/01/21 02:38:55;;;;;;;2.38;1.50;;;;;;;-3.29;78.48;95778.47;5118392;27;20038;-68
2024/01/21 02:41:20;;;;;;;2.20;1.40;;;;;;;-3.13;77.41;95771.47;5113043;28;20495;-68
2024/01/21 02:43:46;;;;;;;2.67;1.63;;;;;;;-2.90;75.44;95778.75;5111105;28;20027;-68
2024/01/21 02:46:11;;;;;;;4.35;2.30;;;;;;;-2.98;74.86;95773.78;5121767;27;20027;-68
2024/01/21 02:48:36;;;;;;;2.40;1.65;;;;;;;-3.03;74.26;95784.03;5109640;28;20460;-68
2024/01/21 02:51:02;;;;;;;3.00;1.58;;;;;;;-3.22;75.23;95791.06;5128323;28;20038;-69
2024/01/21 02:53:27;;;;;;;3.53;1.88;;;;;;;-3.58;76.11;95768.69;5121184;28;20096;-68
2024/01/21 02:55:52;;;;;;;2.75;1.40;;;;;;;-3.77;76.71;95781.59;5124286;28;20045;-68
2024/01/21 02:58:18;;;;;;;2.50;1.60;;;;;;;-3.74;77.21;95776.47;5121998;28;20039;-70
2024/01/21 03:00:43;;;;;;;1.98;1.30;;;;;;;-3.63;77.83;95800.06;5120988;27;20155;-68
2024/01/21 03:03:10;;;;;;;2.38;1.40;;;;;;;-3.68;77.13;95786.56;5118582;27;20569;-68
2024/01/21 03:05:36;;;;;;;2.15;1.10;;;;;;;-3.73;76.99;95793.41;5109666;28;20394;-68
2024/01/21 03:08:01;;;;;;;2.60;1.90;;;;;;;-3.77;77.31;95794.31;5113855;27;20030;-68
2024/01/21 03:10:27;;;;;;;3.63;1.73;;;;;;;-3.70;76.41;95793.38;5124453;27;20408;-70
2024/01/21 03:12:52;;;;;;;1.50;1.10;;;;;;;-3.75;76.58;95800.22;5095910;28;20124;-68
2024/01/21 03:15:17;;;;;;;2.38;1.30;;;;;;;-3.75;76.11;95796.84;5113957;28;20043;-68
2024/01/21 03:17:43;;;;;;;2.30;1.20;;;;;;;-3.57;74.22;95804.22;5121126;27;20038;-68
2024/01/21 03:20:09;;;;;;;2.22;1.33;;;;;;;-3.54;73.35;95803.34;5132839;27;20016;-70
2024/01/21 03:22:34;;;;;;;1.50;1.13;;;;;;;-3.78;73.63;95804.50;5132925;27;20046;-68
2024/01/21 03:25:00;;;;;;;3.35;1.70;;;;;;;-4.00;74.74;95812.34;5125445;27;20020;-68
2024/01/21 03:27:25;;;;;;;2.67;1.55;;;;;;;-3.79;72.50;95818.88;5113919;28;20023;-68
2024/01/21 03:29:51;;;;;;;2.63;1.20;;;;;;;-3.81;71.83;95810.44;5107305;27;20424;-68
2024/01/21 03:32:17;;;;;;;3.63;1.80;;;;;;;-3.96;72.27;95818.22;5114166;27;20454;-69
2024/01/21 03:34:43;;;;;;;3.25;1.73;;;;;;;-4.18;72.72;95808.28;5132488;27;20515;-69
2024/01/21 03:37:08;;;;;;;4.03;2.00;;;;;;;-4.27;72.94;95811.72;5124756;27;20028;-70
2024/01/21 03:39:34;;;;;;;2.00;1.38;;;;;;;-4.25;73.68;95823.59;5091783;27;20123;-69
2024/01/21 03:41:59;;;;;;;1.70;1.02;;;;;;;-4.09;72.77;95825.97;5132956;27;20450;-70
2024/01/21 03:44:25;;;;;;;1.23;0.90;;;;;;;-4.13;71.80;95826.81;5112457;28;20050;-69
2024/01/21 03:46:50;;;;;;;1.63;1.15;;;;;;;-4.38;71.57;95817.75;5112408;28;20027;-70
2024/01/21 03:49:15;;;;;;;3.40;1.40;;;;;;;-4.45;73.33;95822.06;5112438;28;20093;-70
2024/01/21 03:51:41;;;;;;;1.90;1.20;;;;;;;-4.51;73.23;95827.19;5112255;28;20027;-70
2024/01/21 03:54:06;;;;;;;3.25;1.60;;;;;;;-4.81;72.76;95803.75;5078382;28;20485;-69
2024/01/21 03:56:32;;;;;;;5.03;2.30;;;;;;;-4.68;72.42;95824.78;5132832;27;20068;-70
2024/01/21 03:58:57;;;;;;;5.22;2.60;;;;;;;-4.75;72.45;95834.13;5132784;27;20027;-69
2024/01/21 04:01:22;;;;;;;2.50;1.50;;;;;;;-4.76;72.57;95829.91;5132670;27;20420;-70
2024/01/21 04:03:48;;;;;;;3.58;1.92;;;;;;;-4.90;72.82;95791.16;5133721;27;20058;-70
2024/01/21 04:06:13;;;;;;;2.33;1.38;;;;;;;-4.76;73.43;95831.63;5115446;27;20027;-69
2024/01/21 04:08:38;;;;;;;3.13;1.52;;;;;;;-4.85;73.08;95840.09;5133968;27;20089;-70
2024/01/21 04:11:04;;;;;;;3.13;1.77;;;;;;;-4.87;73.21;95841.81;5127531;27;20404;-68
2024/01/21 04:13:29;;;;;;;2.58;1.55;;;;;;;-5.04;74.18;95841.94;5124274;27;20046;-68
2024/01/21 04:15:55;;;;;;;1.48;1.20;;;;;;;-4.96;73.42;95842.72;5122350;27;20031;-68
2024/01/21 04:18:20;;;;;;;1.75;1.17;;;;;;;-5.14;73.64;95850.41;5111900;27;20035;-68
2024/01/21 04:20:45;;;;;;;2.33;1.20;;;;;;;-5.35;73.88;95863.19;5129942;27;20023;-68
2024/01/21 04:23:11;;;;;;;2.53;1.45;;;;;;;-5.19;73.07;95858.03;5111846;28;20043;-69
2024/01/21 04:25:36;;;;;;;2.38;1.50;;;;;;;-5.26;73.00;95861.47;5094619;28;20020;-68
2024/01/21 04:28:02;;;;;;;2.67;1.50;;;;;;;-5.11;72.49;95862.25;5112877;28;20479;-68
2024/01/21 04:30:27;;;;;;;2.63;1.40;;;;;;;-5.16;72.21;95869.84;5112672;28;20027;-68
2024/01/21 04:32:54;;;;;;;2.40;1.52;;;;;;;-5.25;71.78;95858.06;5115612;27;20035;-69
2024/01/21 04:35:20;;;;;;;3.08;1.70;;;;;;;-5.25;72.74;95872.44;5133025;27;20034;-68
2024/01/21 04:37:45;;;;;;;5.25;2.13;;;;;;;-5.34;74.08;95870.78;5131563;27;20043;-69
2024/01/21 04:40:11;;;;;;;5.65;2.30;;;;;;;-5.61;74.50;95843.88;5133194;27;20430;-69
2024/01/21 04:42:36;;;;;;;3.60;2.25;;;;;;;-5.43;73.02;95869.16;5132933;27;20035;-68
2024/01/21 04:45:02;;;;;;;4.20;2.75;;;;;;;-5.52;74.53;95874.22;5131760;27;20042;-68
2024/01/21 04:47:27;;;;;;;4.90;3.08;;;;;;;-5.49;75.39;95876.78;5131535;27;20104;-68
2024/01/21 04:49:53;;;;;;;7.03;3.88;;;;;;;-5.44;75.35;95876.72;5131731;27;20015;-69
2024/01/21 04:52:19;;;;;;;6.10;3.58;;;;;;;-5.31;74.66;95887.69;5114307;27;20039;-69
2024/01/21 04:54:44;;;;;;;5.00;3.45;;;;;;;-5.26;74.83;95896.09;5132646;27;20412;-68
2024/01/21 04:57:09;;;;;;;7.60;4.38;;;;;;;-5.26;74.90;95880.91;5132825;27;20491;-68
2024/01/21 04:59:35;;;;;;;7.78;4.03;;;;;;;-5.26;74.25;95885.97;5133097;27;20022;-69
2024/01/21 05:02:00;;;;;;;8.13;4.30;;;;;;;-5.32;74.61;95896.09;5114427;27;20041;-68
2024/01/21 05:04:25;;;;;;;9.10;4.85;;;;;;;-5.36;73.92;95889.38;5131312;27;20389;-68
2024/01/21 05:06:51;;;;;;;6.93;3.75;;;;;;;-5.55;74.31;95888.59;5132638;27;20027;-68
2024/01/21 05:09:16;;;;;;;6.60;3.90;;;;;;;-5.54;73.93;95897.88;5131472;27;20042;-69
2024/01/21 05:11:42;;;;;;;6.65;3.45;;;;;;;-5.75;73.52;95859.13;5132746;27;20024;-68
2024/01/21 05:14:08;;;;;;;7.22;4.18;;;;;;;-5.72;74.26;95903.84;5132731;27;20087;-68
2024/01/21 05:16:33;;;;;;;8.38;3.75;;;;;;;-5.55;73.67;95886.91;5131066;27;20028;-68
2024/01/21 05:18:59;;;;;;;7.60;3.72;;;;;;;-5.49;74.11;95899.56;5097091;27;20050;-68
2024/01/21 05:21:24;;;;;;;6.70;3.90;;;;;;;-5.39;73.56;95911.31;5132359;27;20024;-68
2024/01/21 05:23:50;;;;;;;7.07;4.00;;;;;;;-5.61;74.00;95900.41;5130711;27;20039;-69
2024/01/21 05:26:16;;;;;;;6.95;3.60;;;;;;;-5.46;74.33;95919.81;5131056;27;20041;-68
2024/01/21 05:28:41;;;;;;;8.07;3.75;;;;;;;-5.53;73.96;95905.47;5131011;27;20031;-69
2024/01/21 05:31:07;;;;;;;15.02;6.20;;;;;;;-5.55;73.74;95913.91;5131008;27;20030;-69
2024/01/21 05:33:33;;;;;;;12.80;6.30;;;;;;;-5.62;73.79;95913.09;5130885;27;20066;-68
2024/01/21 05:35:58;;;;;;;7.95;5.00;;;;;;;-5.65;74.07;95920.72;5130870;27;20160;-69
2024/01/21 05:38:24;;;;;;;10.70;6.47;;;;;;;-5.74;74.34;95934.22;5132211;27;20032;-69
2024/01/21 05:40:49;;;;;;;14.77;7.03;;;;;;;-5.66;73.60;95936.72;5130792;27;20408;-68
2024/01/21 05:43:15;;;;;;;21.92;7.97;;;;;;;-5.57;73.23;95941.78;5132146;27;20058;-68
2024/01/21 05:45:40;;;;;;;18.08;6.95;;;;;;;-5.55;71.91;95942.63;5128048;27;20545;-69
2024/01/21 05:48:07;;;;;;;16.95;7.20;;;;;;;-5.81;72.82;95929.19;5106971;27;20043;-69
2024/01/21 05:50:32;;;;;;;13.07;6.75;;;;;;;-5.82;74.46;95935.06;5109345;28;20031;-69
2024/01/21 05:52:57;;;;;;;13.27;7.28;;;;;;;-5.66;72.68;95956.97;5129154;27;20039;-69
2024/01/21 05:55:23;;;;;;;15.30;8.00;;;;;;;-5.74;72.56;95953.63;5115748;27;20023;-67
2024/01/21 05:57:48;;;;;;;21.08;10.98;;;;;;;-5.75;72.27;95951.94;5127076;27;20046;-68
2024/01/21 06:00:14;;;;;;;13.13;7.55;;;;;;;-5.87;72.45;95953.66;5125008;27;20054;-67
2024/01/21 06:02:40;;;;;;;12.20;6.53;;;;;;;-5.78;72.52;95959.53;5112078;28;20069;-67
2024/01/21 06:05:06;;;;;;;11.98;6.10;;;;;;;-5.83;73.18;95964.59;5110928;28;20082;-68
2024/01/21 06:07:32;;;;;;;7.65;3.40;;;;;;;-6.15;73.54;95965.50;5108702;28;20134;-68
2024/01/21 06:09:57;;;;;;;6.97;4.40;;;;;;;-5.95;73.05;95970.56;5098418;28;20077;-68
2024/01/21 06:12:22;;;;;;;7.13;4.10;;;;;;;-6.18;73.60;95929.25;5113594;27;20132;-67
2024/01/21 06:14:48;;;;;;;5.57;4.00;;;;;;;-5.91;73.93;95962.06;5113449;27;20031;-66
2024/01/21 06:17:13;;;;;;;4.53;2.85;;;;;;;-6.11;74.63;95967.16;5122849;27;20523;-67
2024/01/21 06:19:39;;;;;;;5.72;4.03;;;;;;;-5.97;74.03;95968.88;5117756;28;20107;-67
2024/01/21 06:22:05;;;;;;;4.85;3.45;;;;;;;-5.95;74.01;95980.69;5103492;28;20079;-66
2024/01/21 06:24:34;;;;;;;5.53;4.10;;;;;;;-5.94;73.07;95977.28;5118845;28;20544;-67
2024/01/21 06:27:00;;;;;;;6.13;4.15;;;;;;;-5.89;72.40;95967.16;5103513;28;20043;-67
2024/01/21 06:29:25;;;;;;;6.07;4.40;;;;;;;-5.86;72.36;95975.56;5114020;28;20054;-67
2024/01/21 06:31:51;;;;;;;5.63;3.05;;;;;;;-5.92;72.88;95985.69;5106101;28;20019;-67
2024/01/21 06:34:16;;;;;;;4.50;3.25;;;;;;;-5.93;72.78;95988.28;5104004;28;20039;-68
2024/01/21 06:36:42;;;;;;;5.28;3.47;;;;;;;-5.99;74.12;95979.00;5126093;27;20023;-68
2024/01/21 06:39:07;;;;;;;9.30;4.88;;;;;;;-5.89;74.60;95972.22;5095052;28;20055;-67
2024/01/21 06:41:33;;;;;;;6.75;4.40;;;;;;;-5.85;74.66;95981.47;5124050;27;20034;-69
2024/01/21 06:43:59;;;;;;;5.78;3.78;;;;;;;-6.16;76.36;95986.56;5108316;28;20040;-68
2024/01/21 06:46:24;;;;;;;6.65;4.00;;;;;;;-6.25;75.49;95946.09;5118174;27;20549;-68
2024/01/21 06:48:50;;;;;;;6.07;4.50;;;;;;;-5.92;75.63;95993.28;5131367;27;20015;-68
2024/01/21 06:51:31;;;;;;;6.82;4.35;;;;;;;-5.90;74.82;95996.69;5099236;27;20031;-70
2024/01/21 06:53:57;;;;;;;6.15;3.47;;;;;;;-5.71;74.68;95999.19;5137831;27;20415;-68
2024/01/21 06:56:23;;;;;;;3.10;2.60;;;;;;;-5.86;75.39;96000.03;5133175;27;20130;-68
2024/01/21 06:58:48;;;;;;;3.63;2.30;;;;;;;-5.74;75.23;95996.66;5129582;27;20035;-69
2024/01/21 07:01:14;;;;;;;5.32;3.30;;;;;;;-5.58;74.71;95995.78;5083687;27;20035;-68
2024/01/21 07:03:39;;;;;;;3.35;2.53;;;;;;;-5.61;74.39;96011.00;5127420;27;20104;-68
2024/01/21 07:06:05;;;;;;;5.82;3.17;;;;;;;-5.62;74.73;96007.63;5111603;28;20030;-69
2024/01/21 07:08:31;;;;;;;5.93;2.90;;;;;;;-5.68;75.52;96015.22;5119904;27;20160;-68
2024/01/21 07:10:56;;;;;;;4.47;3.33;;;;;;;-5.54;74.61;96006.75;5117114;27;20028;-69
2024/01/21 07:13:22;;;;;;;5.28;2.75;;;;;;;-5.47;75.30;96006.75;5139892;27;20169;-68
2024/01/21 07:15:47;;;;;;;7.20;4.40;;;;;;;-5.31;74.63;96010.09;5144043;27;20047;-68
2024/01/21 07:18:14;;;;;;;6.68;3.72;;;;;;;-5.46;74.42;95995.78;5117768;27;20040;-68
2024/01/21 07:20:39;;;;;;;3.75;2.42;;;;;;;-5.53;74.14;96021.97;5133094;27;20073;-69
2024/01/21 07:23:04;;;;;;;4.75;2.90;;;;;;;-5.45;74.52;96019.44;5109970;27;20027;-69
2024/01/21 07:25:30;;;;;;;4.25;2.95;;;;;;;-5.35;73.86;96030.38;5132380;27;20495;-68
2024/01/21 07:27:55;;;;;;;4.32;2.95;;;;;;;-5.45;74.78;96039.69;5130110;27;20069;-69
2024/01/21 07:30:21;;;;;;;3.30;2.28;;;;;;;-5.34;73.85;96030.38;5134047;27;20104;-69
2024/01/21 07:32:46;;;;;;;3.15;2.10;;;;;;;-5.25;74.05;96037.97;5092630;27;20043;-69
2024/01/21 07:35:12;;;;;;;4.38;2.60;;;;;;;-5.43;74.52;96038.84;5153380;27;20058;-69
2024/01/21 07:37:37;;;;;;;4.00;2.47;;;;;;;-5.11;74.05;96045.53;5121426;27;20107;-69
2024/01/21 07:40:03;;;;;;;6.03;3.92;;;;;;;-5.08;73.75;96039.63;5107623;27;20280;-69
2024/01/21 07:42:29;;;;;;;5.53;3.83;;;;;;;-5.10;73.79;96043.84;5103285;27;20088;-69
2024/01/21 07:44:54;;;;;;;3.88;2.33;;;;;;;-4.78;73.09;96048.81;5131088;27;20019;-69
2024/01/21 07:47:20;;;;;;;3.70;2.20;;;;;;;-3.68;70.05;96040.56;5110370;28;20020;-69
2024/01/21 07:49:46;;;;;;;3.25;2.33;;;;;;;-3.00;66.99;96047.59;5126182;27;20043;-69
2024/01/21 07:52:12;;;;;;;4.05;2.47;;;;;;;-1.89;64.88;96040.25;5103727;28;20023;-68
2024/01/21 07:54:37;;;;;;;3.00;2.05;;;;;;;-1.11;61.12;96035.59;5124118;27;20483;-70
2024/01/21 07:57:03;;;;;;;3.15;2.20;;;;;;;-1.22;61.23;96035.78;5110652;27;20505;-70
2024/01/21 07:59:28;;;;;;;3.15;1.80;;;;;;;-0.30;58.28;96038.28;5125962;27;20083;-69
2024/01/21 08:01:54;;;;;;;4.38;2.45;;;;;;;-0.15;57.98;96045.63;5126841;27;20497;-70
2024/01/21 08:04:19;;;;;;;3.13;2.10;;;;;;;-0.02;58.38;96047.03;5122040;27;20048;-70
2024/01/21 08:06:44;;;;;;;3.78;2.22;;;;;;;0.12;56.22;96043.34;5105653;27;20106;-69
2024/01/21 08:09:10;;;;;;;2.67;2.10;;;;;;;-0.06;56.45;96045.41;5130773;27;20038;-70
2024/01/21 08:11:35;;;;;;;3.63;2.47;;;;;;;-0.27;58.02;96048.44;5126813;27;20084;-70
2024/01/21 08:14:01;;;;;;;4.20;2.50;;;;;;;-0.62;58.00;96036.38;5121785;27;20417;-70
2024/01/21 08:16:26;;;;;;;3.97;2.53;;;;;;;-0.83;59.98;96050.41;5148517;27;20027;-70
2024/01/21 08:18:51;;;;;;;4.18;2.80;;;;;;;-1.51;62.42;96059.19;5123926;27;20491;-70
2024/01/21 08:21:17;;;;;;;5.43;3.40;;;;;;;-2.09;65.03;96057.50;5125314;27;20481;-69
2024/01/21 08:23:42;;;;;;;10.45;6.20;;;;;;;-2.32;66.79;96062.91;5129941;27;20019;-70
2024/01/21 08:26:08;;;;;;;24.20;9.07;;;;;;;-2.53;68.21;96061.50;5123567;27;20027;-71
2024/01/21 08:28:33;;;;;;;5.32;3.63;;;;;;;-2.47;68.65;96043.59;5115446;27;20039;-69
2024/01/21 08:31:00;;;;;;;4.78;2.90;;;;;;;-1.95;66.84;96065.81;5111163;27;20027;-69
2024/01/21 08:33:26;;;;;;;6.13;3.40;;;;;;;-1.74;65.75;96067.19;5117926;27;20026;-68
2024/01/21 08:35:52;;;;;;;5.80;3.40;;;;;;;-1.68;65.23;96059.47;5137337;27;20031;-71
2024/01/21 08:38:18;;;;;;;6.95;3.92;;;;;;;-1.77;64.90;96066.41;5097650;27;20042;-69
2024/01/21 08:40:43;;;;;;;6.47;4.10;;;;;;;-1.84;65.49;96068.19;5120632;27;20031;-69
2024/01/21 08:43:08;;;;;;;6.57;4.82;;;;;;;-1.94;65.29;96067.50;5118493;27;20541;-69
2024/01/21 08:45:34;;;;;;;7.43;4.03;;;;;;;-1.87;66.05;96074.16;5106007;27;20031;-70
2024/01/21 08:47:59;;;;;;;6.05;4.28;;;;;;;-1.82;66.54;96069.84;5125137;27;20027;-69
2024/01/21 08:50:27;;;;;;;7.18;4.70;;;;;;;-1.88;66.98;96072.50;5106900;27;20031;-69
2024/01/21 08:52:53;;;;;;;6.18;4.05;;;;;;;-1.96;65.54;96068.38;5121084;27;20549;-70
2024/01/21 08:55:18;;;;;;;5.80;3.92;;;;;;;-2.07;66.26;96071.06;5108254;28;20043;-70
2024/01/21 08:57:44;;;;;;;8.23;5.30;;;;;;;-2.05;66.17;96072.72;5130391;27;20075;-69
2024/01/21 09:00:10;;;;;;;11.93;7.68;;;;;;;-2.05;65.85;96071.91;5127170;27;20068;-70
2024/01/21 09:02:36;;;;;;;16.95;10.10;;;;;;;-2.29;66.33;96058.59;5128079;27;20041;-70
2024/01/21 09:05:02;;;;;;;13.20;8.45;;;;;;;-1.75;65.45;96067.25;5124302;27;20066;-68
2024/01/21 09:07:27;;;;;;;15.75;9.02;;;;;;;-1.94;65.73;96077.69;5130217;27;20031;-69
2024/01/21 09:09:53;;;;;;;21.52;12.75;;;;;;;-2.39;66.81;96059.59;5116307;27;20047;-69
2024/01/21 09:12:18;;;;;;;18.02;13.27;;;;;;;-2.36;67.15;96074.84;5128735;27;20027;-69
2024/01/21 09:14:43;;;;;;;17.40;11.85;;;;;;;-2.38;67.48;96086.75;5113788;27;20400;-69
2024/01/21 09:17:09;;;;;;;17.27;12.35;;;;;;;-2.39;67.73;96069.78;5130631;27;20046;-69
2024/01/21 09:19:35;;;;;;;16.55;10.98;;;;;;;-2.30;67.59;96077.31;5135576;27;20521;-69
2024/01/21 09:22:01;;;;;;;20.65;11.70;;;;;;;-2.40;68.18;96078.28;5130761;27;20103;-68
2024/01/21 09:24:26;;;;;;;22.10;12.75;;;;;;;-2.38;67.97;96078.25;5146017;27;20022;-68
2024/01/21 09:26:52;;;;;;;13.40;8.43;;;;;;;-1.91;66.53;96077.63;5152650;27;20019;-67
2024/01/21 09:29:17;;;;;;;14.82;10.68;;;;;;;-1.75;66.98;96079.97;5132574;27;20446;-69
2024/01/21 09:31:43;;;;;;;12.07;8.43;;;;;;;-1.58;65.49;96070.38;5094889;27;20031;-68
2024/01/21 09:34:08;;;;;;;12.55;9.13;;;;;;;-1.77;66.18;96074.06;5133124;27;20034;-68
2024/01/21 09:36:34;;;;;;;12.02;7.88;;;;;;;-2.03;66.07;96063.38;5130736;27;20039;-69
2024/01/21 09:39:01;;;;;;;11.93;7.97;;;;;;;-1.86;65.52;96060.59;5124530;27;20119;-67
2024/01/21 09:41:36;;;;;;;11.23;7.07;;;;;;;-1.77;65.37;96056.22;5087336;27;20504;-67
2024/01/21 09:44:01;;;;;;;12.38;7.03;;;;;;;-1.85;65.59;96066.53;5107070;28;20026;-68
2024/01/21 09:46:27;;;;;;;9.32;5.75;;;;;;;-2.04;66.04;96060.84;5104933;27;20497;-68
2024/01/21 09:48:53;;;;;;;9.27;7.10;;;;;;;-1.86;65.46;96063.13;5108847;28;20028;-68
2024/01/21 09:51:20;;;;;;;19.85;12.30;;;;;;;-1.77;66.62;96057.06;5110669;28;20042;-68
2024/01/21 09:53:47;;;;;;;13.02;7.97;;;;;;;-1.74;65.57;96049.38;5078878;28;20035;-67
2024/01/21 09:56:12;;;;;;;15.52;9.82;;;;;;;-1.58;65.72;96044.88;5113365;28;20397;-69
2024/01/21 09:58:45;;;;;;;12.32;8.25;;;;;;;-1.46;64.56;96039.56;5094775;28;20031;-69
2024/01/21 10:01:10;;;;;;;10.75;6.72;;;;;;;-1.06;64.23;96053.34;5097327;28;20035;-69
2024/01/21 10:03:36;;;;;;;14.77;9.77;;;;;;;-1.18;63.88;96034.84;5124005;27;20104;-69
2024/01/21 10:06:01;;;;;;;17.83;10.50;;;;;;;-1.32;64.91;96036.81;5109617;28;20028;-69
2024/01/21 10:08:27;;;;;;;16.58;10.35;;;;;;;-1.23;64.65;96043.44;5108530;28;20028;-69
2024/01/21 10:10:53;;;;;;;14.93;9.00;;;;;;;-0.75;63.39;96043.44;5113002;28;20035;-69
2024/01/21 10:13:19;;;;;;;10.38;7.03;;;;;;;-0.96;60.79;96004.69;5114894;28;20023;-69
2024/01/21 10:15:44;;;;;;;10.13;6.70;;;;;;;-1.05;61.17;95986.19;5113286;28;20497;-69
2024/01/21 10:18:10;;;;;;;12.13;8.27;;;;;;;-0.95;62.04;96031.91;5114017;28;20024;-69
2024/01/21 10:20:36;;;;;;;14.60;7.93;;;;;;;-1.19;62.53;96035.72;5114275;28;20054;-69
2024/01/21 10:23:11;;;;;;;12.43;8.82;;;;;;;-1.25;62.64;96037.56;5078195;28;20020;-69
2024/01/21 10:25:39;;;;;;;12.95;7.75;;;;;;;-1.30;63.10;96021.50;5111901;28;20051;-69
2024/01/21 10:28:05;;;;;;;10.23;7.50;;;;;;;-0.82;62.85;96031.66;5111780;28;20061;-69
2024/01/21 10:30:31;;;;;;;12.00;7.82;;;;;;;-0.56;60.37;96023.50;5113293;28;20070;-69
2024/01/21 10:32:56;;;;;;;21.58;11.38;;;;;;;-0.62;60.89;96021.91;5077741;28;20051;-69
2024/01/21 10:35:22;;;;;;;45.90;23.45;;;;;;;-0.86;62.50;96014.72;5113731;28;20039;-69
2024/01/21 10:37:47;;;;;;;19.00;11.30;;;;;;;-1.06;62.33;96013.38;5096782;28;20435;-69
2024/01/21 10:40:12;;;;;;;19.73;12.95;;;;;;;-0.88;63.34;96016.47;5115101;28;20032;-70
2024/01/21 10:42:39;;;;;;;15.05;9.65;;;;;;;-0.82;62.29;96031.66;5115081;28;20053;-69
2024/01/21 10:45:05;;;;;;;17.70;11.40;;;;;;;-0.85;62.98;96011.31;5113558;28;20031;-69
2024/01/21 10:47:31;;;;;;;23.88;15.13;;;;;;;-0.93;63.37;96014.84;5113853;28;20077;-69
2024/01/21 10:49:57;;;;;;;13.70;9.75;;;;;;;-0.98;64.48;96014.06;5096697;28;20031;-69
2024/01/21 10:52:23;;;;;;;13.00;7.90;;;;;;;-0.79;63.42;96021.41;5113505;28;20455;-69
2024/01/21 10:54:48;;;;;;;17.98;13.10;;;;;;;-1.10;64.43;96005.84;5096359;28;20047;-69
2024/01/21 10:57:13;;;;;;;14.35;9.90;;;;;;;-0.97;64.62;96010.69;5096416;28;20324;-69
2024/01/21 10:59:39;;;;;;;13.32;9.32;;;;;;;-1.20;63.94;96007.69;5113202;28;20481;-69
2024/01/21 11:02:05;;;;;;;12.50;8.95;;;;;;;-1.22;64.85;96001.81;5113363;28;20111;-69
2024/01/21 11:04:30;;;;;;;15.02;10.65;;;;;;;-1.54;65.66;95994.69;5096244;28;20065;-69
2024/01/21 11:06:55;;;;;;;17.48;10.88;;;;;;;-1.47;64.77;96007.31;5096252;28;20073;-69
2024/01/21 11:09:22;;;;;;;12.98;8.65;;;;;;;-1.35;64.55;96007.09;5096028;28;20023;-69
2024/01/21 11:11:50;;;;;;;14.13;10.65;;;;;;;-1.48;64.92;96010.72;5095978;28;20183;-69
2024/01/21 11:14:32;;;;;;;16.73;10.23;;;;;;;-1.00;64.43;96003.09;5095886;28;20038;-69
2024/01/21 11:16:58;;;;;;;14.52;9.38;;;;;;;-1.17;63.84;96002.53;5112998;28;20417;-69
2024/01/21 11:19:24;;;;;;;16.70;9.23;;;;;;;-1.49;64.21;95998.00;5112857;28;20027;-69
2024/01/21 11:21:54;;;;;;;11.88;9.10;;;;;;;-1.46;65.84;95997.97;5112199;28;20035;-69
2024/01/21 11:24:19;;;;;;;15.65;10.95;;;;;;;-1.23;65.28;95990.72;5095910;28;20027;-69